sensor_id;sensor_type;location;lat;lon;timestamp;pressure;altitude;pressure_sealevel;temperature;humidity
72558;BME280;60583;50.094;8.748;2023-04-30T00:01:59;100957.94;;;12.39;74.58
72558;BME280;60583;50.094;8.748;2023-04-30T00:04:25;100974.28;;;12.51;75.55
72558;BME280;60583;50.094;8.748;2023-04-30T00:06:50;100964.97;;;12.40;75.37
72558;BME280;60583;50.094;8.748;2023-04-30T00:09:16;100971.56;;;12.44;74.66
72558;BME280;60583;50.094;8.748;2023-04-30T00:11:41;100960.03;;;12.44;75.17
72558;BME280;60583;50.094;8.748;2023-04-30T00:14:06;100971.16;;;12.47;75.14
72558;BME280;60583;50.094;8.748;2023-04-30T00:16:32;100944.97;;;12.36;75.11
72558;BME280;60583;50.094;8.748;2023-04-30T00:18:57;100952.81;;;12.44;74.57
72558;BME280;60583;50.094;8.748;2023-04-30T00:21:23;100967.47;;;12.48;75.18
72558;BME280;60583;50.094;8.748;2023-04-30T00:23:48;100974.63;;;12.41;74.96
72558;BME280;60583;50.094;8.748;2023-04-30T00:26:14;100962.91;;;12.42;75.85
72558;BME280;60583;50.094;8.748;2023-04-30T00:28:39;100974.69;;;12.48;74.90
72558;BME280;60583;50.094;8.748;2023-04-30T00:31:05;100946.38;;;12.32;74.77
72558;BME280;60583;50.094;8.748;2023-04-30T00:33:33;100968.88;;;12.44;75.54
72558;BME280;60583;50.094;8.748;2023-04-30T00:35:59;100979.97;;;12.41;75.13
72558;BME280;60583;50.094;8.748;2023-04-30T00:38:25;100961.84;;;12.37;75.71
72558;BME280;60583;50.094;8.748;2023-04-30T00:40:51;100974.00;;;12.39;75.95
72558;BME280;60583;50.094;8.748;2023-04-30T00:43:17;100981.66;;;12.49;74.94
72558;BME280;60583;50.094;8.748;2023-04-30T00:45:42;100956.59;;;12.22;75.64
72558;BME280;60583;50.094;8.748;2023-04-30T00:48:08;100974.78;;;12.33;76.04
72558;BME280;60583;50.094;8.748;2023-04-30T00:50:36;100982.13;;;12.25;76.34
72558;BME280;60583;50.094;8.748;2023-04-30T00:53:02;100974.06;;;12.18;76.73
72558;BME280;60583;50.094;8.748;2023-04-30T00:55:28;100983.31;;;12.15;76.37
72558;BME280;60583;50.094;8.748;2023-04-30T00:57:53;100978.91;;;12.08;75.88
72558;BME280;60583;50.094;8.748;2023-04-30T01:00:20;100986.03;;;12.01;77.04
72558;BME280;60583;50.094;8.748;2023-04-30T01:02:46;100984.72;;;11.90;77.80
72558;BME280;60583;50.094;8.748;2023-04-30T01:05:12;100978.69;;;11.82;77.96
72558;BME280;60583;50.094;8.748;2023-04-30T01:07:38;100995.59;;;11.89;77.66
72558;BME280;60583;50.094;8.748;2023-04-30T01:10:06;100962.06;;;11.65;77.70
72558;BME280;60583;50.094;8.748;2023-04-30T01:12:42;100971.28;;;11.63;78.44
72558;BME280;60583;50.094;8.748;2023-04-30T01:15:32;100990.72;;;11.71;78.32
72558;BME280;60583;50.094;8.748;2023-04-30T01:18:17;100991.00;;;11.62;78.57
72558;BME280;60583;50.094;8.748;2023-04-30T01:20:49;101003.88;;;11.58;79.35
72558;BME280;60583;50.094;8.748;2023-04-30T01:29:11;101009.19;;;11.51;79.76
72558;BME280;60583;50.094;8.748;2023-04-30T01:31:38;101001.66;;;11.40;80.53
72558;BME280;60583;50.094;8.748;2023-04-30T01:34:07;100997.34;;;11.39;79.98
72558;BME280;60583;50.094;8.748;2023-04-30T01:47:38;100977.25;;;11.43;79.71
72558;BME280;60583;50.094;8.748;2023-04-30T01:50:33;101010.06;;;11.59;79.73
72558;BME280;60583;50.094;8.748;2023-04-30T01:53:05;101015.03;;;11.62;79.20
72558;BME280;60583;50.094;8.748;2023-04-30T01:55:41;101010.53;;;11.62;79.56
72558;BME280;60583;50.094;8.748;2023-04-30T01:58:12;100951.53;;;11.21;78.67
72558;BME280;60583;50.094;8.748;2023-04-30T02:00:39;100999.63;;;11.42;79.52
72558;BME280;60583;50.094;8.748;2023-04-30T02:03:05;101009.03;;;11.38;80.23
72558;BME280;60583;50.094;8.748;2023-04-30T02:05:30;101006.44;;;11.45;79.75
72558;BME280;60583;50.094;8.748;2023-04-30T02:07:56;101009.53;;;11.48;79.29
72558;BME280;60583;50.094;8.748;2023-04-30T02:10:24;101014.47;;;11.45;79.62
72558;BME280;60583;50.094;8.748;2023-04-30T02:12:51;100996.31;;;11.40;79.31
72558;BME280;60583;50.094;8.748;2023-04-30T02:15:16;100981.81;;;11.28;79.59
72558;BME280;60583;50.094;8.748;2023-04-30T02:17:42;101000.13;;;11.31;80.47
72558;BME280;60583;50.094;8.748;2023-04-30T02:20:07;101010.84;;;11.38;79.78
72558;BME280;60583;50.094;8.748;2023-04-30T02:22:33;100963.91;;;11.08;79.48
72558;BME280;60583;50.094;8.748;2023-04-30T02:24:59;101017.66;;;11.40;80.22
72558;BME280;60583;50.094;8.748;2023-04-30T02:27:25;101019.19;;;11.28;80.05
72558;BME280;60583;50.094;8.748;2023-04-30T02:29:51;101016.88;;;11.40;79.80
72558;BME280;60583;50.094;8.748;2023-04-30T02:32:17;101019.44;;;11.33;80.08
72558;BME280;60583;50.094;8.748;2023-04-30T02:34:42;101017.03;;;11.38;79.80
72558;BME280;60583;50.094;8.748;2023-04-30T02:37:08;101006.72;;;11.35;79.25
72558;BME280;60583;50.094;8.748;2023-04-30T02:39:34;100993.03;;;11.24;80.05
72558;BME280;60583;50.094;8.748;2023-04-30T02:41:59;101010.78;;;11.31;80.03
72558;BME280;60583;50.094;8.748;2023-04-30T02:44:25;100971.94;;;10.93;80.73
72558;BME280;60583;50.094;8.748;2023-04-30T02:46:51;101026.34;;;11.28;80.38
72558;BME280;60583;50.094;8.748;2023-04-30T02:49:16;101014.69;;;11.14;80.70
72558;BME280;60583;50.094;8.748;2023-04-30T02:51:42;101021.31;;;11.18;79.96
72558;BME280;60583;50.094;8.748;2023-04-30T02:54:08;101018.00;;;11.16;80.65
72558;BME280;60583;50.094;8.748;2023-04-30T02:56:33;100939.22;;;10.70;80.40
72558;BME280;60583;50.094;8.748;2023-04-30T02:58:59;101005.13;;;11.05;81.06
72558;BME280;60583;50.094;8.748;2023-04-30T03:01:25;101016.06;;;11.10;80.14
72558;BME280;60583;50.094;8.748;2023-04-30T03:03:50;101006.78;;;11.06;80.69
72558;BME280;60583;50.094;8.748;2023-04-30T03:06:15;101021.63;;;10.94;81.13
72558;BME280;60583;50.094;8.748;2023-04-30T03:08:41;100986.69;;;10.74;81.08
72558;BME280;60583;50.094;8.748;2023-04-30T03:11:06;101020.59;;;10.80;81.46
72558;BME280;60583;50.094;8.748;2023-04-30T03:13:31;101013.16;;;10.76;82.20
72558;BME280;60583;50.094;8.748;2023-04-30T03:16:01;101020.34;;;10.61;81.82
72558;BME280;60583;50.094;8.748;2023-04-30T03:18:29;101029.53;;;10.73;82.37
72558;BME280;60583;50.094;8.748;2023-04-30T03:20:54;100976.34;;;10.27;82.28
72558;BME280;60583;50.094;8.748;2023-04-30T03:23:19;101037.53;;;10.58;82.89
72558;BME280;60583;50.094;8.748;2023-04-30T03:25:46;101035.22;;;10.70;82.26
72558;BME280;60583;50.094;8.748;2023-04-30T03:28:11;101035.63;;;10.67;82.83
72558;BME280;60583;50.094;8.748;2023-04-30T03:30:36;101011.69;;;10.59;82.06
72558;BME280;60583;50.094;8.748;2023-04-30T03:33:02;101040.69;;;10.76;82.40
72558;BME280;60583;50.094;8.748;2023-04-30T03:35:31;101028.81;;;10.79;82.08
72558;BME280;60583;50.094;8.748;2023-04-30T03:37:56;100999.19;;;10.59;82.69
72558;BME280;60583;50.094;8.748;2023-04-30T03:40:22;101031.13;;;10.82;82.52
72558;BME280;60583;50.094;8.748;2023-04-30T03:42:47;101032.13;;;10.81;82.40
72558;BME280;60583;50.094;8.748;2023-04-30T03:45:12;101031.91;;;10.82;81.48
72558;BME280;60583;50.094;8.748;2023-04-30T03:47:38;101030.72;;;10.85;81.98
72558;BME280;60583;50.094;8.748;2023-04-30T03:50:04;101012.16;;;10.77;81.53
72558;BME280;60583;50.094;8.748;2023-04-30T03:52:30;101019.41;;;10.83;81.54
72558;BME280;60583;50.094;8.748;2023-04-30T03:54:55;101000.66;;;10.62;82.38
72558;BME280;60583;50.094;8.748;2023-04-30T03:57:21;101032.56;;;10.70;82.15
72558;BME280;60583;50.094;8.748;2023-04-30T03:59:48;101019.63;;;10.67;81.88
72558;BME280;60583;50.094;8.748;2023-04-30T04:02:14;101024.28;;;10.65;81.77
72558;BME280;60583;50.094;8.748;2023-04-30T04:04:40;101008.84;;;10.46;81.83
72558;BME280;60583;50.094;8.748;2023-04-30T04:07:06;100982.16;;;10.31;82.21
72558;BME280;60583;50.094;8.748;2023-04-30T04:09:34;101035.88;;;10.57;82.15
72558;BME280;60583;50.094;8.748;2023-04-30T04:11:59;101017.47;;;10.62;82.74
72558;BME280;60583;50.094;8.748;2023-04-30T04:14:25;101034.22;;;10.56;82.73
72558;BME280;60583;50.094;8.748;2023-04-30T04:16:51;101035.34;;;10.62;82.03
72558;BME280;60583;50.094;8.748;2023-04-30T04:19:16;101000.34;;;10.42;82.58
72558;BME280;60583;50.094;8.748;2023-04-30T04:21:41;101038.00;;;10.62;82.64
72558;BME280;60583;50.094;8.748;2023-04-30T04:24:07;101023.28;;;10.51;82.26
72558;BME280;60583;50.094;8.748;2023-04-30T04:26:36;101028.88;;;10.42;82.97
72558;BME280;60583;50.094;8.748;2023-04-30T04:29:05;101021.88;;;10.41;82.66
72558;BME280;60583;50.094;8.748;2023-04-30T04:31:30;101028.22;;;10.40;82.88
72558;BME280;60583;50.094;8.748;2023-04-30T04:33:58;101027.41;;;10.39;82.77
72558;BME280;60583;50.094;8.748;2023-04-30T04:36:25;101058.78;;;10.52;82.74
72558;BME280;60583;50.094;8.748;2023-04-30T04:38:52;101048.81;;;10.46;82.42
72558;BME280;60583;50.094;8.748;2023-04-30T04:41:18;101050.84;;;10.44;82.66
72558;BME280;60583;50.094;8.748;2023-04-30T04:43:43;101046.63;;;10.49;82.38
72558;BME280;60583;50.094;8.748;2023-04-30T04:46:09;101043.69;;;10.44;82.56
72558;BME280;60583;50.094;8.748;2023-04-30T04:48:34;101052.50;;;10.45;82.49
72558;BME280;60583;50.094;8.748;2023-04-30T04:51:00;101056.63;;;10.47;81.93
72558;BME280;60583;50.094;8.748;2023-04-30T04:53:25;101021.56;;;10.21;82.56
72558;BME280;60583;50.094;8.748;2023-04-30T04:55:51;101046.72;;;10.41;82.31
72558;BME280;60583;50.094;8.748;2023-04-30T04:58:16;101046.50;;;10.43;82.13
72558;BME280;60583;50.094;8.748;2023-04-30T05:00:43;101045.22;;;10.39;81.94
72558;BME280;60583;50.094;8.748;2023-04-30T05:03:08;101032.19;;;10.44;81.57
72558;BME280;60583;50.094;8.748;2023-04-30T05:05:34;101060.06;;;10.56;81.24
72558;BME280;60583;50.094;8.748;2023-04-30T05:07:59;101063.00;;;10.61;81.33
72558;BME280;60583;50.094;8.748;2023-04-30T05:10:25;101070.94;;;10.69;80.90
72558;BME280;60583;50.094;8.748;2023-04-30T05:12:50;101067.16;;;10.63;81.04
72558;BME280;60583;50.094;8.748;2023-04-30T05:15:15;101059.44;;;10.68;80.87
72558;BME280;60583;50.094;8.748;2023-04-30T05:17:41;101013.44;;;10.52;80.34
72558;BME280;60583;50.094;8.748;2023-04-30T05:20:07;101059.06;;;10.86;79.39
72558;BME280;60583;50.094;8.748;2023-04-30T05:22:33;101059.28;;;10.84;79.34
72558;BME280;60583;50.094;8.748;2023-04-30T05:24:58;101037.44;;;10.81;78.48
72558;BME280;60583;50.094;8.748;2023-04-30T05:27:23;101040.94;;;10.96;78.66
72558;BME280;60583;50.094;8.748;2023-04-30T05:29:49;101067.44;;;11.12;77.67
72558;BME280;60583;50.094;8.748;2023-04-30T05:32:14;101037.63;;;10.94;77.08
72558;BME280;60583;50.094;8.748;2023-04-30T05:34:40;101059.16;;;11.22;77.33
72558;BME280;60583;50.094;8.748;2023-04-30T05:37:05;101068.81;;;11.23;77.27
72558;BME280;60583;50.094;8.748;2023-04-30T05:39:31;101018.03;;;11.02;75.73
72558;BME280;60583;50.094;8.748;2023-04-30T05:41:56;101058.38;;;11.42;75.68
72558;BME280;60583;50.094;8.748;2023-04-30T05:44:21;101054.06;;;11.41;75.74
72558;BME280;60583;50.094;8.748;2023-04-30T05:46:47;101064.38;;;11.44;75.15
72558;BME280;60583;50.094;8.748;2023-04-30T05:49:12;101071.75;;;11.64;73.71
72558;BME280;60583;50.094;8.748;2023-04-30T05:51:37;101047.84;;;11.55;74.24
72558;BME280;60583;50.094;8.748;2023-04-30T05:54:03;101071.94;;;11.77;74.04
72558;BME280;60583;50.094;8.748;2023-04-30T05:56:28;101079.03;;;11.84;74.63
72558;BME280;60583;50.094;8.748;2023-04-30T05:58:54;101042.75;;;11.75;73.28
72558;BME280;60583;50.094;8.748;2023-04-30T06:01:19;101041.16;;;11.81;72.67
72558;BME280;60583;50.094;8.748;2023-04-30T06:03:45;101047.00;;;11.70;73.89
72558;BME280;60583;50.094;8.748;2023-04-30T06:06:11;101069.72;;;12.01;73.45
72558;BME280;60583;50.094;8.748;2023-04-30T06:08:36;101061.00;;;12.14;73.25
72558;BME280;60583;50.094;8.748;2023-04-30T06:11:02;101074.28;;;12.29;71.99
72558;BME280;60583;50.094;8.748;2023-04-30T06:13:31;101066.34;;;12.35;71.34
72558;BME280;60583;50.094;8.748;2023-04-30T06:15:56;101048.13;;;12.24;71.86
72558;BME280;60583;50.094;8.748;2023-04-30T06:18:22;101057.16;;;12.44;71.52
72558;BME280;60583;50.094;8.748;2023-04-30T06:20:47;101052.66;;;12.51;70.53
72558;BME280;60583;50.094;8.748;2023-04-30T06:23:12;101071.16;;;12.74;69.35
72558;BME280;60583;50.094;8.748;2023-04-30T06:25:38;101068.81;;;12.92;69.26
72558;BME280;60583;50.094;8.748;2023-04-30T06:28:03;101061.72;;;12.50;68.99
72558;BME280;60583;50.094;8.748;2023-04-30T06:30:30;101057.19;;;12.23;71.14
72558;BME280;60583;50.094;8.748;2023-04-30T06:32:56;101057.16;;;12.72;70.07
72558;BME280;60583;50.094;8.748;2023-04-30T06:35:21;101076.75;;;12.51;68.92
72558;BME280;60583;50.094;8.748;2023-04-30T06:37:46;101058.38;;;12.69;69.16
72558;BME280;60583;50.094;8.748;2023-04-30T06:40:12;101039.44;;;12.71;68.49
72558;BME280;60583;50.094;8.748;2023-04-30T06:42:37;101054.09;;;12.81;68.36
72558;BME280;60583;50.094;8.748;2023-04-30T06:45:03;101076.34;;;13.10;67.98
72558;BME280;60583;50.094;8.748;2023-04-30T06:47:30;101065.69;;;13.16;67.84
72558;BME280;60583;50.094;8.748;2023-04-30T06:50:01;101077.09;;;13.38;67.82
72558;BME280;60583;50.094;8.748;2023-04-30T06:52:26;101062.94;;;13.57;66.86
72558;BME280;60583;50.094;8.748;2023-04-30T06:54:52;101081.56;;;13.78;66.59
72558;BME280;60583;50.094;8.748;2023-04-30T06:57:17;101061.81;;;13.86;66.19
72558;BME280;60583;50.094;8.748;2023-04-30T06:59:43;101044.50;;;14.01;66.04
72558;BME280;60583;50.094;8.748;2023-04-30T07:02:09;101069.28;;;14.30;63.99
72558;BME280;60583;50.094;8.748;2023-04-30T07:04:34;101078.41;;;14.42;64.12
72558;BME280;60583;50.094;8.748;2023-04-30T07:07:00;101065.59;;;14.50;63.91
72558;BME280;60583;50.094;8.748;2023-04-30T07:09:27;101066.00;;;14.54;63.92
72558;BME280;60583;50.094;8.748;2023-04-30T07:11:53;101057.34;;;14.65;62.89
72558;BME280;60583;50.094;8.748;2023-04-30T07:14:18;101050.91;;;14.66;62.65
72558;BME280;60583;50.094;8.748;2023-04-30T07:16:44;101046.16;;;14.75;62.82
72558;BME280;60583;50.094;8.748;2023-04-30T07:19:09;101009.44;;;14.62;62.51
72558;BME280;60583;50.094;8.748;2023-04-30T07:21:35;101046.38;;;14.80;61.85
72558;BME280;60583;50.094;8.748;2023-04-30T07:24:00;101054.59;;;14.91;60.88
72558;BME280;60583;50.094;8.748;2023-04-30T07:26:25;101058.28;;;15.10;61.45
72558;BME280;60583;50.094;8.748;2023-04-30T07:28:51;101061.72;;;15.30;61.20
72558;BME280;60583;50.094;8.748;2023-04-30T07:31:16;101042.78;;;15.05;60.55
72558;BME280;60583;50.094;8.748;2023-04-30T07:33:43;101048.31;;;15.17;61.71
72558;BME280;60583;50.094;8.748;2023-04-30T07:36:09;101047.41;;;15.43;62.22
72558;BME280;60583;50.094;8.748;2023-04-30T07:38:34;101048.03;;;15.38;61.23
72558;BME280;60583;50.094;8.748;2023-04-30T07:41:00;101049.84;;;15.51;60.72
72558;BME280;60583;50.094;8.748;2023-04-30T07:43:27;101049.59;;;15.65;60.90
72558;BME280;60583;50.094;8.748;2023-04-30T07:45:53;101047.03;;;15.77;61.17
72558;BME280;60583;50.094;8.748;2023-04-30T07:48:19;101052.69;;;16.00;60.38
72558;BME280;60583;50.094;8.748;2023-04-30T07:50:48;101061.94;;;16.04;60.45
72558;BME280;60583;50.094;8.748;2023-04-30T07:53:13;101041.19;;;16.11;59.39
72558;BME280;60583;50.094;8.748;2023-04-30T07:55:39;101041.38;;;16.16;60.48
72558;BME280;60583;50.094;8.748;2023-04-30T07:58:04;101058.75;;;16.20;57.25
72558;BME280;60583;50.094;8.748;2023-04-30T08:00:30;101050.75;;;15.76;58.00
72558;BME280;60583;50.094;8.748;2023-04-30T08:02:56;101060.16;;;15.98;59.21
72558;BME280;60583;50.094;8.748;2023-04-30T08:05:21;101056.97;;;16.32;57.23
72558;BME280;60583;50.094;8.748;2023-04-30T08:07:47;101042.81;;;16.43;55.99
72558;BME280;60583;50.094;8.748;2023-04-30T08:10:12;101062.66;;;16.74;55.64
72558;BME280;60583;50.094;8.748;2023-04-30T08:12:38;101054.59;;;16.74;56.04
72558;BME280;60583;50.094;8.748;2023-04-30T08:15:04;101050.09;;;16.36;56.46
72558;BME280;60583;50.094;8.748;2023-04-30T08:17:31;101062.34;;;16.82;56.13
72558;BME280;60583;50.094;8.748;2023-04-30T08:19:56;101059.84;;;16.37;56.32
72558;BME280;60583;50.094;8.748;2023-04-30T08:22:22;101050.81;;;16.75;56.39
72558;BME280;60583;50.094;8.748;2023-04-30T08:24:48;101053.41;;;17.06;55.84
72558;BME280;60583;50.094;8.748;2023-04-30T08:27:14;101044.63;;;17.10;54.31
72558;BME280;60583;50.094;8.748;2023-04-30T08:29:40;101033.75;;;17.17;54.32
72558;BME280;60583;50.094;8.748;2023-04-30T08:32:05;101048.97;;;17.30;54.72
72558;BME280;60583;50.094;8.748;2023-04-30T08:34:31;101035.03;;;17.33;54.17
72558;BME280;60583;50.094;8.748;2023-04-30T08:36:56;101049.34;;;17.33;52.89
72558;BME280;60583;50.094;8.748;2023-04-30T08:39:23;101050.13;;;17.04;53.95
72558;BME280;60583;50.094;8.748;2023-04-30T08:42:00;101051.00;;;17.16;56.21
72558;BME280;60583;50.094;8.748;2023-04-30T08:44:28;101036.69;;;17.15;54.44
72558;BME280;60583;50.094;8.748;2023-04-30T08:46:55;101032.03;;;17.59;54.31
72558;BME280;60583;50.094;8.748;2023-04-30T08:49:23;101046.63;;;17.51;52.56
72558;BME280;60583;50.094;8.748;2023-04-30T08:51:49;101043.34;;;17.49;52.06
72558;BME280;60583;50.094;8.748;2023-04-30T08:54:16;101046.28;;;17.77;51.13
72558;BME280;60583;50.094;8.748;2023-04-30T08:56:42;101053.28;;;17.97;51.20
72558;BME280;60583;50.094;8.748;2023-04-30T08:59:07;101040.50;;;18.15;52.05
72558;BME280;60583;50.094;8.748;2023-04-30T09:01:33;101036.34;;;18.42;50.14
72558;BME280;60583;50.094;8.748;2023-04-30T09:03:59;101029.94;;;18.55;50.50
72558;BME280;60583;50.094;8.748;2023-04-30T09:06:27;101035.81;;;18.11;51.29
72558;BME280;60583;50.094;8.748;2023-04-30T09:08:52;101031.41;;;18.39;49.84
72558;BME280;60583;50.094;8.748;2023-04-30T09:13:50;101036.81;;;18.97;50.35
72558;BME280;60583;50.094;8.748;2023-04-30T09:16:17;101022.94;;;18.36;48.89
72558;BME280;60583;50.094;8.748;2023-04-30T09:18:42;101032.16;;;18.70;47.42
72558;BME280;60583;50.094;8.748;2023-04-30T09:21:08;101009.56;;;18.41;48.78
72558;BME280;60583;50.094;8.748;2023-04-30T09:23:33;101025.88;;;19.04;47.55
72558;BME280;60583;50.094;8.748;2023-04-30T09:25:59;101020.66;;;19.14;48.61
72558;BME280;60583;50.094;8.748;2023-04-30T09:28:27;101005.34;;;18.45;45.23
72558;BME280;60583;50.094;8.748;2023-04-30T09:30:56;100975.03;;;18.66;46.52
72558;BME280;60583;50.094;8.748;2023-04-30T09:33:22;101019.94;;;19.19;45.45
72558;BME280;60583;50.094;8.748;2023-04-30T09:35:48;101016.81;;;19.50;45.42
72558;BME280;60583;50.094;8.748;2023-04-30T09:38:31;100996.28;;;19.65;44.95
72558;BME280;60583;50.094;8.748;2023-04-30T09:41:00;101008.31;;;20.03;44.76
72558;BME280;60583;50.094;8.748;2023-04-30T09:43:27;100960.00;;;20.11;43.61
72558;BME280;60583;50.094;8.748;2023-04-30T09:45:52;100985.84;;;20.35;42.41
72558;BME280;60583;50.094;8.748;2023-04-30T09:48:21;101003.75;;;20.37;43.10
72558;BME280;60583;50.094;8.748;2023-04-30T09:50:48;100999.44;;;20.57;42.60
72558;BME280;60583;50.094;8.748;2023-04-30T09:53:14;100973.88;;;20.70;43.93
72558;BME280;60583;50.094;8.748;2023-04-30T09:55:50;101001.59;;;20.77;41.52
72558;BME280;60583;50.094;8.748;2023-04-30T09:58:16;101005.25;;;20.66;39.95
72558;BME280;60583;50.094;8.748;2023-04-30T10:00:44;100994.09;;;21.22;41.08
72558;BME280;60583;50.094;8.748;2023-04-30T10:03:14;100981.50;;;21.59;42.46
72558;BME280;60583;50.094;8.748;2023-04-30T10:05:44;100985.66;;;21.19;42.17
72558;BME280;60583;50.094;8.748;2023-04-30T10:08:37;100930.19;;;20.11;42.04
72558;BME280;60583;50.094;8.748;2023-04-30T10:11:05;100979.03;;;20.33;43.16
72558;BME280;60583;50.094;8.748;2023-04-30T10:13:50;100966.13;;;21.00;43.81
72558;BME280;60583;50.094;8.748;2023-04-30T10:16:24;100986.97;;;21.16;42.31
72558;BME280;60583;50.094;8.748;2023-04-30T10:18:52;100954.72;;;20.76;44.03
72558;BME280;60583;50.094;8.748;2023-04-30T10:21:21;100980.59;;;21.81;39.69
72558;BME280;60583;50.094;8.748;2023-04-30T10:23:47;100944.56;;;23.31;37.86
72558;BME280;60583;50.094;8.748;2023-04-30T10:26:13;100956.50;;;23.25;37.40
72558;BME280;60583;50.094;8.748;2023-04-30T10:28:41;100959.28;;;24.61;34.56
72558;BME280;60583;50.094;8.748;2023-04-30T10:31:07;100946.97;;;24.73;34.49
72558;BME280;60583;50.094;8.748;2023-04-30T10:36:43;100933.28;;;25.48;32.63
72558;BME280;60583;50.094;8.748;2023-04-30T10:39:10;100917.75;;;25.33;32.38
72558;BME280;60583;50.094;8.748;2023-04-30T10:41:37;100939.63;;;25.77;32.33
72558;BME280;60583;50.094;8.748;2023-04-30T10:44:02;100934.81;;;26.26;34.35
72558;BME280;60583;50.094;8.748;2023-04-30T10:46:29;100904.69;;;26.79;31.91
72558;BME280;60583;50.094;8.748;2023-04-30T10:48:55;100918.63;;;26.53;30.89
72558;BME280;60583;50.094;8.748;2023-04-30T10:51:21;100891.41;;;26.91;31.28
72558;BME280;60583;50.094;8.748;2023-04-30T10:53:50;100903.25;;;27.23;30.02
72558;BME280;60583;50.094;8.748;2023-04-30T10:56:43;100902.53;;;26.76;30.51
72558;BME280;60583;50.094;8.748;2023-04-30T10:59:09;100906.34;;;25.70;32.30
72558;BME280;60583;50.094;8.748;2023-04-30T11:01:54;100907.81;;;24.39;29.15
72558;BME280;60583;50.094;8.748;2023-04-30T11:04:21;100883.91;;;23.76;31.95
72558;BME280;60583;50.094;8.748;2023-04-30T11:09:55;100906.63;;;25.97;30.91
72558;BME280;60583;50.094;8.748;2023-04-30T11:12:21;100875.94;;;26.05;29.28
72558;BME280;60583;50.094;8.748;2023-04-30T11:14:59;100892.78;;;26.65;28.68
72558;BME280;60583;50.094;8.748;2023-04-30T11:17:26;100884.59;;;26.41;28.39
72558;BME280;60583;50.094;8.748;2023-04-30T11:19:53;100878.94;;;26.80;29.44
72558;BME280;60583;50.094;8.748;2023-04-30T11:22:22;100895.91;;;27.19;26.64
72558;BME280;60583;50.094;8.748;2023-04-30T11:27:25;100890.69;;;27.41;28.56
72558;BME280;60583;50.094;8.748;2023-04-30T11:29:52;100875.41;;;24.23;28.93
72558;BME280;60583;50.094;8.748;2023-04-30T11:32:19;100886.50;;;24.51;29.75
72558;BME280;60583;50.094;8.748;2023-04-30T11:34:45;100893.34;;;25.08;28.61
72558;BME280;60583;50.094;8.748;2023-04-30T11:37:24;100850.50;;;24.54;29.71
72558;BME280;60583;50.094;8.748;2023-04-30T11:39:53;100869.91;;;25.41;29.55
72558;BME280;60583;50.094;8.748;2023-04-30T11:42:19;100856.19;;;26.13;29.73
72558;BME280;60583;50.094;8.748;2023-04-30T11:44:45;100861.13;;;26.58;27.05
72558;BME280;60583;50.094;8.748;2023-04-30T11:47:14;100839.88;;;25.41;28.31
72558;BME280;60583;50.094;8.748;2023-04-30T11:49:41;100873.16;;;25.53;28.59
72558;BME280;60583;50.094;8.748;2023-04-30T11:52:07;100851.28;;;25.14;28.62
72558;BME280;60583;50.094;8.748;2023-04-30T11:54:37;100863.25;;;25.57;28.78
72558;BME280;60583;50.094;8.748;2023-04-30T11:57:02;100838.69;;;26.56;27.92
72558;BME280;60583;50.094;8.748;2023-04-30T11:59:29;100832.69;;;26.12;28.52
72558;BME280;60583;50.094;8.748;2023-04-30T12:01:55;100787.94;;;24.68;28.75
72558;BME280;60583;50.094;8.748;2023-04-30T12:04:21;100855.81;;;25.67;29.58
72558;BME280;60583;50.094;8.748;2023-04-30T12:06:47;100852.91;;;26.82;27.49
72558;BME280;60583;50.094;8.748;2023-04-30T12:09:12;100838.81;;;24.44;28.70
72558;BME280;60583;50.094;8.748;2023-04-30T12:11:38;100844.94;;;23.45;30.99
72558;BME280;60583;50.094;8.748;2023-04-30T12:14:08;100848.13;;;22.30;32.74
72558;BME280;60583;50.094;8.748;2023-04-30T12:16:41;100846.03;;;23.64;31.78
72558;BME280;60583;50.094;8.748;2023-04-30T12:19:07;100833.22;;;23.70;31.72
72558;BME280;60583;50.094;8.748;2023-04-30T12:21:34;100833.53;;;23.38;31.88
72558;BME280;60583;50.094;8.748;2023-04-30T12:23:59;100817.13;;;23.13;32.63
72558;BME280;60583;50.094;8.748;2023-04-30T12:26:36;100830.41;;;24.25;30.90
72558;BME280;60583;50.094;8.748;2023-04-30T12:29:08;100832.84;;;24.91;29.70
72558;BME280;60583;50.094;8.748;2023-04-30T12:31:36;100838.88;;;25.94;29.07
72558;BME280;60583;50.094;8.748;2023-04-30T12:34:05;100825.59;;;24.66;30.13
72558;BME280;60583;50.094;8.748;2023-04-30T12:36:33;100829.06;;;24.18;31.48
72558;BME280;60583;50.094;8.748;2023-04-30T12:39:09;100807.91;;;24.58;30.50
72558;BME280;60583;50.094;8.748;2023-04-30T12:41:39;100825.41;;;24.47;30.90
72558;BME280;60583;50.094;8.748;2023-04-30T12:44:22;100806.19;;;24.03;31.57
72558;BME280;60583;50.094;8.748;2023-04-30T12:46:50;100828.00;;;24.03;32.30
72558;BME280;60583;50.094;8.748;2023-04-30T12:49:24;100819.50;;;22.79;33.75
72558;BME280;60583;50.094;8.748;2023-04-30T12:51:49;100813.94;;;21.55;34.46
72558;BME280;60583;50.094;8.748;2023-04-30T12:54:24;100762.88;;;21.15;35.02
72558;BME280;60583;50.094;8.748;2023-04-30T12:57:07;100801.34;;;21.39;35.57
72558;BME280;60583;50.094;8.748;2023-04-30T12:59:35;100813.25;;;21.38;35.54
72558;BME280;60583;50.094;8.748;2023-04-30T13:02:11;100794.97;;;21.23;35.13
72558;BME280;60583;50.094;8.748;2023-04-30T13:04:38;100812.31;;;20.95;36.69
72558;BME280;60583;50.094;8.748;2023-04-30T13:07:04;100813.63;;;20.93;36.21
72558;BME280;60583;50.094;8.748;2023-04-30T13:09:31;100804.16;;;21.22;36.72
72558;BME280;60583;50.094;8.748;2023-04-30T13:11:57;100792.22;;;21.18;36.72
72558;BME280;60583;50.094;8.748;2023-04-30T13:14:22;100785.25;;;21.32;36.50
72558;BME280;60583;50.094;8.748;2023-04-30T13:16:48;100769.00;;;21.37;36.45
72558;BME280;60583;50.094;8.748;2023-04-30T13:19:13;100782.66;;;21.11;36.43